EDT,Max TemperatureF,Mean TemperatureF,Min TemperatureF,Max Dew PointF,MeanDew PointF,Min DewpointF,Max Humidity, Mean Humidity, Min Humidity, Max Sea Level PressureIn, Mean Sea Level PressureIn, Min Sea Level PressureIn, Max VisibilityMiles, Mean VisibilityMiles, Min VisibilityMiles, Max Wind SpeedMPH, Mean Wind SpeedMPH, Max Gust SpeedMPH,PrecipitationIn, CloudCover, Events, WindDirDegrees
2013-5-1,80,66,52,57,53,50,93,63,42,30.24,30.19,30.11,10,10,10,12,3,16,0.00,0,,97
2013-5-2,75,62,51,56,52,45,90,65,49,30.27,30.21,30.13,10,10,10,12,5,,0.00,0,,138
2013-5-3,78,65,53,55,44,35,93,52,24,30.16,30.10,30.03,10,10,10,18,5,25,0.00,0,,138
2013-5-4,73,63,54,44,41,37,64,46,33,30.10,30.06,29.99,10,10,10,15,9,26,0.00,0,,104
2013-5-5,73,60,48,43,37,27,77,43,24,30.05,30.00,29.92,10,10,10,15,8,22,0.00,0,,80
2013-5-6,70,64,57,57,47,33,87,61,34,30.00,29.98,29.95,10,10,10,12,5,,0.02,6,Rain,80
2013-5-7,71,64,55,59,54,51,89,77,60,29.98,29.96,29.94,10,10,4,10,4,,0.14,5,Rain,63
2013-5-8,73,63,54,56,53,51,93,71,49,29.98,29.94,29.91,10,10,10,12,3,,0.05,5,Thunderstorm,65
2013-5-9,75,60,46,59,51,46,100,85,43,30.00,29.97,29.94,10,4,0,12,1,,0.01,2,Fog,243
2013-5-10,73,66,59,62,60,56,94,89,68,29.97,29.86,29.80,10,6,0,20,7,41,1.47,7,Fog-Rain-Thunderstorm,225
2013-5-11,62,54,46,61,51,39,94,85,72,29.94,29.85,29.81,10,9,2,22,8,36,0.08,8,Rain,281
2013-5-12,53,44,37,38,33,30,93,65,45,30.13,30.03,29.96,10,10,10,18,8,26,0.00,4,,288
2013-5-13,57,46,36,36,33,28,93,67,37,30.21,30.15,30.11,10,10,10,15,2,17,0.00,4,Rain,309
2013-5-14,73,53,33,53,42,32,96,66,37,30.17,30.01,29.83,10,9,4,15,3,22,0.00,3,,193
2013-5-15,84,74,63,61,58,53,70,55,41,29.82,29.79,29.75,10,10,10,22,11,31,0.00,1,Thunderstorm,238
2013-5-16,75,67,59,64,60,55,100,80,53,29.99,29.88,29.80,10,6,1,21,6,30,0.92,3,Rain-Thunderstorm,234
2013-5-17,80,70,60,64,61,57,96,83,47,30.11,30.04,29.99,10,5,0,8,2,,0.00,5,Fog,187
2013-5-18,79,67,55,64,58,52,93,77,58,30.10,30.05,29.99,10,10,8,9,2,,0.02,3,Rain,85
2013-5-19,80,68,57,66,62,57,100,79,60,30.04,29.99,29.92,10,8,4,10,2,16,0.00,4,,140
2013-5-20,82,71,60,70,67,61,100,84,63,30.03,29.97,29.89,10,6,0,12,4,17,0.01,4,Fog-Thunderstorm,171
2013-5-21,84,76,69,69,65,62,93,72,52,29.93,29.87,29.81,10,9,5,13,5,28,0.01,1,Thunderstorm,196
2013-5-22,80,71,64,64,61,59,90,70,60,29.86,29.80,29.74,10,10,7,15,8,25,0.09,3,Rain-Thunderstorm,204
2013-5-23,73,61,48,63,58,43,94,83,59,30.04,29.86,29.78,10,9,4,18,8,25,0.01,7,Rain,248
2013-5-24,57,50,42,43,37,35,83,64,47,30.34,30.22,30.06,10,10,10,14,10,22,0.00,4,,346
2013-5-25,64,48,33,43,36,32,100,75,38,30.38,30.33,30.26,10,6,0,12,2,21,0.00,0,Fog,328
2013-5-26,68,51,36,42,37,31,97,60,27,30.34,30.29,30.22,10,10,9,8,2,,0.00,0,,314
2013-5-27,69,56,45,53,46,42,90,68,42,30.26,30.17,30.04,10,10,9,13,3,20,0.07,4,Rain,109
2013-5-28,84,70,59,64,60,54,93,67,45,30.05,29.99,29.94,10,10,10,21,5,28,0.02,5,Rain-Thunderstorm,213
2013-5-29,84,76,66,62,60,57,81,58,41,30.08,30.04,29.99,10,10,10,17,8,26,0.00,0,,216
2013-5-30,88,74,60,66,62,58,100,70,38,30.17,30.10,30.04,10,9,2,12,3,16,0.00,0,,196
2013-5-31,88,72,57,66,63,57,97,76,44,30.08,30.03,29.95,10,9,2,18,5,30,0.48,3,Rain-Thunderstorm,227